sensor_id;sensor_type;location;lat;lon;timestamp;P1;durP1;ratioP1;P2;durP2;ratioP2
6665;SDS011;3369;49.906;8.598;2023-06-01T00:01:08;1.33;;;1.23;;
6665;SDS011;3369;49.906;8.598;2023-06-01T00:03:37;2.10;;;1.50;;
6665;SDS011;3369;49.906;8.598;2023-06-01T00:06:04;1.33;;;1.23;;
6665;SDS011;3369;49.906;8.598;2023-06-01T00:08:31;1.93;;;1.73;;
6665;SDS011;3369;49.906;8.598;2023-06-01T00:10:56;2.53;;;1.97;;
6665;SDS011;3369;49.906;8.598;2023-06-01T00:13:22;2.27;;;1.90;;
6665;SDS011;3369;49.906;8.598;2023-06-01T00:15:48;2.47;;;1.50;;
6665;SDS011;3369;49.906;8.598;2023-06-01T00:18:13;2.00;;;1.80;;
6665;SDS011;3369;49.906;8.598;2023-06-01T00:20:40;2.50;;;1.90;;
6665;SDS011;3369;49.906;8.598;2023-06-01T00:23:06;2.13;;;1.77;;
6665;SDS011;3369;49.906;8.598;2023-06-01T00:25:33;1.73;;;1.63;;
6665;SDS011;3369;49.906;8.598;2023-06-01T00:27:59;1.70;;;1.60;;
6665;SDS011;3369;49.906;8.598;2023-06-01T00:30:27;2.77;;;1.83;;
6665;SDS011;3369;49.906;8.598;2023-06-01T00:32:53;1.67;;;1.57;;
6665;SDS011;3369;49.906;8.598;2023-06-01T00:35:18;2.20;;;1.63;;
6665;SDS011;3369;49.906;8.598;2023-06-01T00:37:44;1.67;;;1.57;;
6665;SDS011;3369;49.906;8.598;2023-06-01T00:40:10;1.70;;;1.60;;
6665;SDS011;3369;49.906;8.598;2023-06-01T00:42:36;1.70;;;1.60;;
6665;SDS011;3369;49.906;8.598;2023-06-01T00:45:01;2.00;;;1.80;;
6665;SDS011;3369;49.906;8.598;2023-06-01T00:47:27;1.75;;;1.40;;
6665;SDS011;3369;49.906;8.598;2023-06-01T00:49:53;1.87;;;1.77;;
6665;SDS011;3369;49.906;8.598;2023-06-01T00:52:18;1.70;;;1.60;;
6665;SDS011;3369;49.906;8.598;2023-06-01T00:54:47;2.03;;;1.40;;
6665;SDS011;3369;49.906;8.598;2023-06-01T00:57:12;1.47;;;1.30;;
6665;SDS011;3369;49.906;8.598;2023-06-01T00:59:38;1.43;;;1.33;;
6665;SDS011;3369;49.906;8.598;2023-06-01T01:02:04;2.03;;;1.60;;
6665;SDS011;3369;49.906;8.598;2023-06-01T01:04:30;1.70;;;1.50;;
6665;SDS011;3369;49.906;8.598;2023-06-01T01:07:09;1.70;;;1.60;;
6665;SDS011;3369;49.906;8.598;2023-06-01T01:30:28;2.10;;;1.87;;
6665;SDS011;3369;49.906;8.598;2023-06-01T01:32:55;1.50;;;1.40;;
6665;SDS011;3369;49.906;8.598;2023-06-01T01:35:23;1.60;;;1.47;;
6665;SDS011;3369;49.906;8.598;2023-06-01T01:37:50;1.83;;;1.30;;
6665;SDS011;3369;49.906;8.598;2023-06-01T01:40:17;2.73;;;2.00;;
6665;SDS011;3369;49.906;8.598;2023-06-01T01:42:42;2.60;;;1.57;;
6665;SDS011;3369;49.906;8.598;2023-06-01T01:45:08;1.60;;;1.40;;
6665;SDS011;3369;49.906;8.598;2023-06-01T01:47:35;1.60;;;1.50;;
6665;SDS011;3369;49.906;8.598;2023-06-01T01:50:09;1.80;;;1.70;;
6665;SDS011;3369;49.906;8.598;2023-06-01T01:52:38;1.80;;;1.70;;
6665;SDS011;3369;49.906;8.598;2023-06-01T01:55:09;2.43;;;1.53;;
6665;SDS011;3369;49.906;8.598;2023-06-01T01:57:35;1.87;;;1.77;;
6665;SDS011;3369;49.906;8.598;2023-06-01T02:00:03;1.50;;;1.40;;
6665;SDS011;3369;49.906;8.598;2023-06-01T02:02:31;1.53;;;1.40;;
6665;SDS011;3369;49.906;8.598;2023-06-01T02:04:57;2.90;;;1.70;;
6665;SDS011;3369;49.906;8.598;2023-06-01T02:07:22;1.70;;;1.60;;
6665;SDS011;3369;49.906;8.598;2023-06-01T02:09:48;1.80;;;1.70;;
6665;SDS011;3369;49.906;8.598;2023-06-01T02:12:14;3.23;;;1.70;;
6665;SDS011;3369;49.906;8.598;2023-06-01T02:14:39;2.17;;;1.93;;
6665;SDS011;3369;49.906;8.598;2023-06-01T02:17:05;1.80;;;1.70;;
6665;SDS011;3369;49.906;8.598;2023-06-01T02:19:32;1.97;;;1.80;;
6665;SDS011;3369;49.906;8.598;2023-06-01T02:21:58;2.03;;;1.83;;
6665;SDS011;3369;49.906;8.598;2023-06-01T02:24:24;1.90;;;1.70;;
6665;SDS011;3369;49.906;8.598;2023-06-01T02:26:50;2.60;;;1.83;;
6665;SDS011;3369;49.906;8.598;2023-06-01T02:29:19;2.53;;;2.00;;
6665;SDS011;3369;49.906;8.598;2023-06-01T02:31:47;2.27;;;1.80;;
6665;SDS011;3369;49.906;8.598;2023-06-01T02:34:15;2.10;;;1.90;;
6665;SDS011;3369;49.906;8.598;2023-06-01T02:36:41;2.30;;;1.80;;
6665;SDS011;3369;49.906;8.598;2023-06-01T02:39:07;2.30;;;2.03;;
6665;SDS011;3369;49.906;8.598;2023-06-01T02:41:34;3.23;;;1.90;;
6665;SDS011;3369;49.906;8.598;2023-06-01T02:43:59;2.63;;;2.27;;
6665;SDS011;3369;49.906;8.598;2023-06-01T02:46:25;2.23;;;1.83;;
6665;SDS011;3369;49.906;8.598;2023-06-01T02:48:51;2.27;;;1.67;;
6665;SDS011;3369;49.906;8.598;2023-06-01T02:51:17;2.13;;;1.93;;
6665;SDS011;3369;49.906;8.598;2023-06-01T02:53:46;1.83;;;1.73;;
6665;SDS011;3369;49.906;8.598;2023-06-01T02:56:12;1.83;;;1.60;;
6665;SDS011;3369;49.906;8.598;2023-06-01T02:58:37;2.20;;;1.97;;
6665;SDS011;3369;49.906;8.598;2023-06-01T03:01:03;2.40;;;1.90;;
6665;SDS011;3369;49.906;8.598;2023-06-01T03:03:29;2.77;;;2.23;;
6665;SDS011;3369;49.906;8.598;2023-06-01T03:05:54;2.10;;;1.80;;
6665;SDS011;3369;49.906;8.598;2023-06-01T03:08:20;2.47;;;2.00;;
6665;SDS011;3369;49.906;8.598;2023-06-01T03:10:46;3.60;;;2.40;;
6665;SDS011;3369;49.906;8.598;2023-06-01T03:13:12;2.90;;;2.23;;
6665;SDS011;3369;49.906;8.598;2023-06-01T03:15:38;2.43;;;2.13;;
6665;SDS011;3369;49.906;8.598;2023-06-01T03:18:04;4.70;;;2.70;;
6665;SDS011;3369;49.906;8.598;2023-06-01T03:20:30;2.70;;;2.27;;
6665;SDS011;3369;49.906;8.598;2023-06-01T03:22:57;2.47;;;2.10;;
6665;SDS011;3369;49.906;8.598;2023-06-01T03:25:22;4.63;;;3.27;;
6665;SDS011;3369;49.906;8.598;2023-06-01T03:27:50;5.10;;;3.60;;
6665;SDS011;3369;49.906;8.598;2023-06-01T03:30:16;6.33;;;3.80;;
6665;SDS011;3369;49.906;8.598;2023-06-01T03:32:42;4.70;;;3.30;;
6665;SDS011;3369;49.906;8.598;2023-06-01T03:35:08;5.23;;;2.90;;
6665;SDS011;3369;49.906;8.598;2023-06-01T03:37:35;3.00;;;2.70;;
6665;SDS011;3369;49.906;8.598;2023-06-01T03:40:02;2.47;;;2.10;;
6665;SDS011;3369;49.906;8.598;2023-06-01T03:42:39;3.00;;;2.20;;
6665;SDS011;3369;49.906;8.598;2023-06-01T03:45:06;2.23;;;2.03;;
6665;SDS011;3369;49.906;8.598;2023-06-01T03:47:33;2.27;;;2.07;;
6665;SDS011;3369;49.906;8.598;2023-06-01T03:49:59;3.40;;;2.47;;
6665;SDS011;3369;49.906;8.598;2023-06-01T03:52:26;2.07;;;1.90;;
6665;SDS011;3369;49.906;8.598;2023-06-01T03:54:52;2.93;;;1.67;;
6665;SDS011;3369;49.906;8.598;2023-06-01T03:57:19;3.83;;;2.47;;
6665;SDS011;3369;49.906;8.598;2023-06-01T03:59:45;3.10;;;2.00;;
6665;SDS011;3369;49.906;8.598;2023-06-01T04:02:11;2.93;;;2.60;;
6665;SDS011;3369;49.906;8.598;2023-06-01T04:04:37;2.93;;;2.40;;
6665;SDS011;3369;49.906;8.598;2023-06-01T04:07:05;3.30;;;2.10;;
6665;SDS011;3369;49.906;8.598;2023-06-01T04:09:34;4.70;;;2.13;;
6665;SDS011;3369;49.906;8.598;2023-06-01T04:12:02;2.77;;;1.90;;
6665;SDS011;3369;49.906;8.598;2023-06-01T04:14:28;2.07;;;1.70;;
6665;SDS011;3369;49.906;8.598;2023-06-01T04:16:53;8.17;;;2.13;;
6665;SDS011;3369;49.906;8.598;2023-06-01T04:19:20;2.27;;;1.83;;
6665;SDS011;3369;49.906;8.598;2023-06-01T04:21:46;2.60;;;2.30;;
6665;SDS011;3369;49.906;8.598;2023-06-01T04:24:11;2.53;;;2.07;;
6665;SDS011;3369;49.906;8.598;2023-06-01T04:26:37;2.03;;;1.90;;
6665;SDS011;3369;49.906;8.598;2023-06-01T04:29:02;2.73;;;2.10;;
6665;SDS011;3369;49.906;8.598;2023-06-01T04:31:28;1.83;;;1.73;;
6665;SDS011;3369;49.906;8.598;2023-06-01T04:33:54;1.70;;;1.60;;
6665;SDS011;3369;49.906;8.598;2023-06-01T04:36:21;2.27;;;1.53;;
6665;SDS011;3369;49.906;8.598;2023-06-01T04:38:51;4.27;;;1.93;;
6665;SDS011;3369;49.906;8.598;2023-06-01T04:41:19;2.30;;;2.03;;
6665;SDS011;3369;49.906;8.598;2023-06-01T04:43:47;2.60;;;1.80;;
6665;SDS011;3369;49.906;8.598;2023-06-01T04:46:19;2.17;;;1.80;;
6665;SDS011;3369;49.906;8.598;2023-06-01T04:48:46;2.07;;;1.87;;
6665;SDS011;3369;49.906;8.598;2023-06-01T04:51:12;2.10;;;1.90;;
6665;SDS011;3369;49.906;8.598;2023-06-01T04:53:44;2.43;;;1.83;;
6665;SDS011;3369;49.906;8.598;2023-06-01T04:56:24;1.70;;;1.60;;
6665;SDS011;3369;49.906;8.598;2023-06-01T04:58:52;2.90;;;1.73;;
6665;SDS011;3369;49.906;8.598;2023-06-01T05:01:18;1.97;;;1.73;;
6665;SDS011;3369;49.906;8.598;2023-06-01T05:03:49;1.77;;;1.60;;
6665;SDS011;3369;49.906;8.598;2023-06-01T05:06:16;1.90;;;1.30;;
6665;SDS011;3369;49.906;8.598;2023-06-01T05:08:44;1.77;;;1.67;;
6665;SDS011;3369;49.906;8.598;2023-06-01T05:11:10;1.63;;;1.53;;
6665;SDS011;3369;49.906;8.598;2023-06-01T05:13:36;2.00;;;1.83;;
6665;SDS011;3369;49.906;8.598;2023-06-01T05:16:03;2.07;;;1.93;;
6665;SDS011;3369;49.906;8.598;2023-06-01T05:18:30;1.77;;;1.67;;
6665;SDS011;3369;49.906;8.598;2023-06-01T05:20:56;1.90;;;1.80;;
6665;SDS011;3369;49.906;8.598;2023-06-01T05:23:23;2.73;;;1.87;;
6665;SDS011;3369;49.906;8.598;2023-06-01T05:25:49;2.20;;;1.70;;
6665;SDS011;3369;49.906;8.598;2023-06-01T05:28:15;1.97;;;1.80;;
6665;SDS011;3369;49.906;8.598;2023-06-01T05:30:41;1.70;;;1.60;;
6665;SDS011;3369;49.906;8.598;2023-06-01T05:33:06;1.60;;;1.50;;
6665;SDS011;3369;49.906;8.598;2023-06-01T05:35:32;1.50;;;1.40;;
6665;SDS011;3369;49.906;8.598;2023-06-01T05:37:58;2.67;;;1.63;;
6665;SDS011;3369;49.906;8.598;2023-06-01T05:40:23;2.00;;;1.80;;
6665;SDS011;3369;49.906;8.598;2023-06-01T05:42:51;3.00;;;1.73;;
6665;SDS011;3369;49.906;8.598;2023-06-01T05:45:17;2.10;;;1.90;;
6665;SDS011;3369;49.906;8.598;2023-06-01T05:47:43;2.10;;;1.90;;
6665;SDS011;3369;49.906;8.598;2023-06-01T05:50:08;1.80;;;1.70;;
6665;SDS011;3369;49.906;8.598;2023-06-01T05:52:34;1.60;;;1.50;;
6665;SDS011;3369;49.906;8.598;2023-06-01T05:55:00;2.30;;;2.07;;
6665;SDS011;3369;49.906;8.598;2023-06-01T05:57:26;3.33;;;1.93;;
6665;SDS011;3369;49.906;8.598;2023-06-01T05:59:51;1.70;;;1.60;;
6665;SDS011;3369;49.906;8.598;2023-06-01T06:02:18;1.77;;;1.50;;
6665;SDS011;3369;49.906;8.598;2023-06-01T06:04:44;1.67;;;1.58;;
6665;SDS011;3369;49.906;8.598;2023-06-01T06:07:10;1.70;;;1.60;;
6665;SDS011;3369;49.906;8.598;2023-06-01T06:09:36;1.80;;;1.60;;
6665;SDS011;3369;49.906;8.598;2023-06-01T06:12:02;1.60;;;1.50;;
6665;SDS011;3369;49.906;8.598;2023-06-01T06:14:28;1.65;;;1.55;;
6665;SDS011;3369;49.906;8.598;2023-06-01T06:16:53;2.47;;;1.58;;
6665;SDS011;3369;49.906;8.598;2023-06-01T06:19:20;3.60;;;1.30;;
6665;SDS011;3369;49.906;8.598;2023-06-01T06:21:45;1.70;;;1.52;;
6665;SDS011;3369;49.906;8.598;2023-06-01T06:24:11;2.00;;;1.40;;
6665;SDS011;3369;49.906;8.598;2023-06-01T06:26:36;3.15;;;1.55;;
6665;SDS011;3369;49.906;8.598;2023-06-01T06:29:02;1.35;;;1.25;;
6665;SDS011;3369;49.906;8.598;2023-06-01T06:31:28;1.45;;;1.13;;
6665;SDS011;3369;49.906;8.598;2023-06-01T06:33:53;3.22;;;1.60;;
6665;SDS011;3369;49.906;8.598;2023-06-01T06:36:19;1.55;;;1.17;;
6665;SDS011;3369;49.906;8.598;2023-06-01T06:38:45;1.75;;;1.50;;
6665;SDS011;3369;49.906;8.598;2023-06-01T06:41:10;1.67;;;1.42;;
6665;SDS011;3369;49.906;8.598;2023-06-01T06:43:36;1.48;;;1.38;;
6665;SDS011;3369;49.906;8.598;2023-06-01T06:46:02;1.50;;;1.40;;
6665;SDS011;3369;49.906;8.598;2023-06-01T06:48:28;1.83;;;1.70;;
6665;SDS011;3369;49.906;8.598;2023-06-01T06:50:53;2.22;;;1.58;;
6665;SDS011;3369;49.906;8.598;2023-06-01T07:13:44;1.90;;;1.38;;
6665;SDS011;3369;49.906;8.598;2023-06-01T07:16:09;1.90;;;1.50;;
6665;SDS011;3369;49.906;8.598;2023-06-01T07:18:36;2.33;;;1.60;;
6665;SDS011;3369;49.906;8.598;2023-06-01T07:21:02;2.03;;;1.70;;
6665;SDS011;3369;49.906;8.598;2023-06-01T07:23:27;3.65;;;1.75;;
6665;SDS011;3369;49.906;8.598;2023-06-01T07:25:53;3.05;;;1.83;;
6665;SDS011;3369;49.906;8.598;2023-06-01T07:28:19;1.60;;;1.50;;
6665;SDS011;3369;49.906;8.598;2023-06-01T07:30:45;1.73;;;1.45;;
6665;SDS011;3369;49.906;8.598;2023-06-01T07:33:11;1.73;;;1.58;;
6665;SDS011;3369;49.906;8.598;2023-06-01T07:35:37;1.80;;;1.42;;
6665;SDS011;3369;49.906;8.598;2023-06-01T07:38:03;2.75;;;1.80;;
6665;SDS011;3369;49.906;8.598;2023-06-01T07:40:31;2.10;;;1.80;;
6665;SDS011;3369;49.906;8.598;2023-06-01T07:42:57;1.67;;;1.58;;
6665;SDS011;3369;49.906;8.598;2023-06-01T07:45:23;2.35;;;1.70;;
6665;SDS011;3369;49.906;8.598;2023-06-01T07:47:48;1.88;;;1.58;;
6665;SDS011;3369;49.906;8.598;2023-06-01T07:50:15;1.63;;;1.48;;
6665;SDS011;3369;49.906;8.598;2023-06-01T07:52:40;2.22;;;1.63;;
6665;SDS011;3369;49.906;8.598;2023-06-01T07:55:06;2.58;;;1.85;;
6665;SDS011;3369;49.906;8.598;2023-06-01T07:57:34;1.85;;;1.67;;
6665;SDS011;3369;49.906;8.598;2023-06-01T08:00:00;2.92;;;1.85;;
6665;SDS011;3369;49.906;8.598;2023-06-01T08:02:26;2.75;;;1.70;;
6665;SDS011;3369;49.906;8.598;2023-06-01T08:04:52;1.95;;;1.75;;
6665;SDS011;3369;49.906;8.598;2023-06-01T08:07:21;1.50;;;1.40;;
6665;SDS011;3369;49.906;8.598;2023-06-01T08:09:47;1.92;;;1.55;;
6665;SDS011;3369;49.906;8.598;2023-06-01T08:12:13;1.40;;;1.20;;
6665;SDS011;3369;49.906;8.598;2023-06-01T08:14:39;1.52;;;1.42;;
6665;SDS011;3369;49.906;8.598;2023-06-01T08:17:06;1.90;;;1.70;;
6665;SDS011;3369;49.906;8.598;2023-06-01T08:19:32;1.50;;;1.40;;
6665;SDS011;3369;49.906;8.598;2023-06-01T08:21:58;1.58;;;1.48;;
6665;SDS011;3369;49.906;8.598;2023-06-01T08:24:24;1.65;;;1.55;;
6665;SDS011;3369;49.906;8.598;2023-06-01T08:26:50;1.95;;;1.58;;
6665;SDS011;3369;49.906;8.598;2023-06-01T08:29:21;1.60;;;1.50;;
6665;SDS011;3369;49.906;8.598;2023-06-01T08:31:46;2.28;;;1.50;;
6665;SDS011;3369;49.906;8.598;2023-06-01T08:34:12;1.45;;;1.35;;
6665;SDS011;3369;49.906;8.598;2023-06-01T08:36:38;2.25;;;1.60;;
6665;SDS011;3369;49.906;8.598;2023-06-01T08:39:19;3.78;;;1.42;;
6665;SDS011;3369;49.906;8.598;2023-06-01T08:44:23;1.58;;;1.48;;
6665;SDS011;3369;49.906;8.598;2023-06-01T08:46:52;1.70;;;1.60;;
6665;SDS011;3369;49.906;8.598;2023-06-01T08:49:19;2.22;;;1.50;;
6665;SDS011;3369;49.906;8.598;2023-06-01T08:51:48;2.08;;;1.58;;
6665;SDS011;3369;49.906;8.598;2023-06-01T08:54:16;2.05;;;1.55;;
6665;SDS011;3369;49.906;8.598;2023-06-01T08:56:42;4.03;;;1.70;;
6665;SDS011;3369;49.906;8.598;2023-06-01T08:59:09;1.75;;;1.65;;
6665;SDS011;3369;49.906;8.598;2023-06-01T09:01:36;3.28;;;1.63;;
6665;SDS011;3369;49.906;8.598;2023-06-01T09:04:03;2.33;;;1.50;;
6665;SDS011;3369;49.906;8.598;2023-06-01T09:06:28;2.85;;;2.03;;
6665;SDS011;3369;49.906;8.598;2023-06-01T09:08:54;2.13;;;1.80;;
6665;SDS011;3369;49.906;8.598;2023-06-01T09:11:20;2.78;;;2.20;;
6665;SDS011;3369;49.906;8.598;2023-06-01T09:13:46;3.72;;;1.60;;
6665;SDS011;3369;49.906;8.598;2023-06-01T09:16:12;1.67;;;1.58;;
6665;SDS011;3369;49.906;8.598;2023-06-01T09:18:50;1.73;;;1.50;;
6665;SDS011;3369;49.906;8.598;2023-06-01T09:21:17;2.35;;;2.15;;
6665;SDS011;3369;49.906;8.598;2023-06-01T09:23:43;3.95;;;1.60;;
6665;SDS011;3369;49.906;8.598;2023-06-01T09:26:12;1.60;;;1.50;;
6665;SDS011;3369;49.906;8.598;2023-06-01T09:28:59;1.88;;;1.60;;
6665;SDS011;3369;49.906;8.598;2023-06-01T09:31:34;1.75;;;1.40;;
6665;SDS011;3369;49.906;8.598;2023-06-01T09:34:00;2.55;;;1.70;;
6665;SDS011;3369;49.906;8.598;2023-06-01T09:36:26;1.92;;;1.50;;
6665;SDS011;3369;49.906;8.598;2023-06-01T09:38:59;5.60;;;1.83;;
6665;SDS011;3369;49.906;8.598;2023-06-01T09:49:32;3.50;;;1.67;;
6665;SDS011;3369;49.906;8.598;2023-06-01T09:54:34;1.85;;;1.20;;
6665;SDS011;3369;49.906;8.598;2023-06-01T09:57:06;1.77;;;1.67;;
6665;SDS011;3369;49.906;8.598;2023-06-01T09:59:39;1.50;;;1.40;;
6665;SDS011;3369;49.906;8.598;2023-06-01T10:02:06;4.20;;;1.67;;
6665;SDS011;3369;49.906;8.598;2023-06-01T10:04:37;3.40;;;1.63;;
6665;SDS011;3369;49.906;8.598;2023-06-01T10:07:05;2.40;;;1.60;;
6665;SDS011;3369;49.906;8.598;2023-06-01T10:09:32;2.13;;;1.65;;
6665;SDS011;3369;49.906;8.598;2023-06-01T10:12:02;1.70;;;1.60;;
6665;SDS011;3369;49.906;8.598;2023-06-01T10:14:28;2.60;;;1.77;;
6665;SDS011;3369;49.906;8.598;2023-06-01T10:16:55;1.95;;;1.75;;
6665;SDS011;3369;49.906;8.598;2023-06-01T10:19:21;4.35;;;1.48;;
6665;SDS011;3369;49.906;8.598;2023-06-01T10:21:47;4.13;;;1.92;;
6665;SDS011;3369;49.906;8.598;2023-06-01T10:24:13;4.18;;;1.80;;
6665;SDS011;3369;49.906;8.598;2023-06-01T10:29:47;1.92;;;1.83;;
6665;SDS011;3369;49.906;8.598;2023-06-01T10:35:02;2.30;;;1.70;;
6665;SDS011;3369;49.906;8.598;2023-06-01T10:37:37;1.45;;;1.30;;
6665;SDS011;3369;49.906;8.598;2023-06-01T10:42:41;3.05;;;1.85;;
6665;SDS011;3369;49.906;8.598;2023-06-01T10:45:08;2.30;;;1.80;;
6665;SDS011;3369;49.906;8.598;2023-06-01T10:47:53;2.83;;;1.83;;
6665;SDS011;3369;49.906;8.598;2023-06-01T10:50:19;4.40;;;1.60;;
6665;SDS011;3369;49.906;8.598;2023-06-01T10:52:45;1.73;;;1.50;;
6665;SDS011;3369;49.906;8.598;2023-06-01T10:57:40;4.15;;;1.73;;
6665;SDS011;3369;49.906;8.598;2023-06-01T11:00:11;2.47;;;1.75;;
6665;SDS011;3369;49.906;8.598;2023-06-01T11:08:01;1.50;;;1.40;;
6665;SDS011;3369;49.906;8.598;2023-06-01T11:13:36;2.13;;;1.50;;
6665;SDS011;3369;49.906;8.598;2023-06-01T11:18:44;3.35;;;2.10;;
6665;SDS011;3369;49.906;8.598;2023-06-01T11:21:26;2.60;;;1.65;;
6665;SDS011;3369;49.906;8.598;2023-06-01T11:24:09;2.47;;;2.17;;
6665;SDS011;3369;49.906;8.598;2023-06-01T11:26:38;3.70;;;2.30;;
6665;SDS011;3369;49.906;8.598;2023-06-01T11:31:36;3.08;;;1.85;;
6665;SDS011;3369;49.906;8.598;2023-06-01T11:34:07;3.17;;;1.80;;
6665;SDS011;3369;49.906;8.598;2023-06-01T11:36:47;1.77;;;1.48;;
6665;SDS011;3369;49.906;8.598;2023-06-01T11:41:50;2.65;;;1.90;;
6665;SDS011;3369;49.906;8.598;2023-06-01T11:44:17;4.60;;;1.73;;
6665;SDS011;3369;49.906;8.598;2023-06-01T11:46:49;3.70;;;1.52;;
6665;SDS011;3369;49.906;8.598;2023-06-01T11:49:16;3.70;;;1.85;;
6665;SDS011;3369;49.906;8.598;2023-06-01T11:51:42;3.38;;;1.80;;
6665;SDS011;3369;49.906;8.598;2023-06-01T11:54:08;1.83;;;1.65;;
6665;SDS011;3369;49.906;8.598;2023-06-01T11:56:34;1.98;;;1.77;;
6665;SDS011;3369;49.906;8.598;2023-06-01T11:59:02;1.85;;;1.70;;
6665;SDS011;3369;49.906;8.598;2023-06-01T12:01:36;5.22;;;1.75;;
6665;SDS011;3369;49.906;8.598;2023-06-01T12:06:46;1.83;;;1.73;;
6665;SDS011;3369;49.906;8.598;2023-06-01T12:09:12;2.67;;;1.73;;
6665;SDS011;3369;49.906;8.598;2023-06-01T12:11:40;3.47;;;1.52;;
6665;SDS011;3369;49.906;8.598;2023-06-01T12:14:08;1.80;;;1.50;;
6665;SDS011;3369;49.906;8.598;2023-06-01T12:19:21;5.93;;;1.92;;
6665;SDS011;3369;49.906;8.598;2023-06-01T12:21:50;2.63;;;1.85;;
6665;SDS011;3369;49.906;8.598;2023-06-01T12:24:25;2.38;;;1.60;;
6665;SDS011;3369;49.906;8.598;2023-06-01T12:26:55;2.28;;;1.35;;
6665;SDS011;3369;49.906;8.598;2023-06-01T12:29:38;1.83;;;1.70;;
6665;SDS011;3369;49.906;8.598;2023-06-01T12:32:06;3.15;;;1.70;;
6665;SDS011;3369;49.906;8.598;2023-06-01T12:34:33;1.75;;;1.42;;
6665;SDS011;3369;49.906;8.598;2023-06-01T12:37:10;1.77;;;1.67;;
6665;SDS011;3369;49.906;8.598;2023-06-01T12:39:52;2.88;;;1.88;;
6665;SDS011;3369;49.906;8.598;2023-06-01T12:42:19;2.50;;;1.90;;
6665;SDS011;3369;49.906;8.598;2023-06-01T12:44:58;1.50;;;1.33;;
6665;SDS011;3369;49.906;8.598;2023-06-01T12:47:24;3.25;;;2.20;;
6665;SDS011;3369;49.906;8.598;2023-06-01T12:50:06;1.73;;;1.63;;
6665;SDS011;3369;49.906;8.598;2023-06-01T12:52:37;1.40;;;1.30;;
6665;SDS011;3369;49.906;8.598;2023-06-01T12:55:03;1.70;;;1.35;;
6665;SDS011;3369;49.906;8.598;2023-06-01T12:57:31;1.60;;;1.33;;
6665;SDS011;3369;49.906;8.598;2023-06-01T12:59:57;1.73;;;1.58;;
6665;SDS011;3369;49.906;8.598;2023-06-01T13:02:23;2.10;;;1.40;;
6665;SDS011;3369;49.906;8.598;2023-06-01T13:04:49;3.60;;;1.70;;
6665;SDS011;3369;49.906;8.598;2023-06-01T13:07:15;1.55;;;1.20;;
6665;SDS011;3369;49.906;8.598;2023-06-01T13:30:38;1.50;;;1.33;;
6665;SDS011;3369;49.906;8.598;2023-06-01T13:33:04;1.83;;;1.30;;
6665;SDS011;3369;49.906;8.598;2023-06-01T13:35:31;1.60;;;1.42;;
6665;SDS011;3369;49.906;8.598;2023-06-01T13:37:57;1.90;;;1.50;;
6665;SDS011;3369;49.906;8.598;2023-06-01T13:40:23;1.52;;;1.42;;
6665;SDS011;3369;49.906;8.598;2023-06-01T13:42:52;2.50;;;1.63;;
6665;SDS011;3369;49.906;8.598;2023-06-01T13:45:18;3.00;;;1.48;;
6665;SDS011;3369;49.906;8.598;2023-06-01T13:47:45;2.92;;;1.73;;
6665;SDS011;3369;49.906;8.598;2023-06-01T13:50:10;1.60;;;1.50;;
6665;SDS011;3369;49.906;8.598;2023-06-01T13:52:40;1.60;;;1.50;;
6665;SDS011;3369;49.906;8.598;2023-06-01T13:55:06;1.65;;;1.50;;
6665;SDS011;3369;49.906;8.598;2023-06-01T13:57:33;2.03;;;1.70;;
6665;SDS011;3369;49.906;8.598;2023-06-01T14:00:00;2.88;;;1.60;;
6665;SDS011;3369;49.906;8.598;2023-06-01T14:02:26;2.53;;;1.60;;
6665;SDS011;3369;49.906;8.598;2023-06-01T14:04:52;1.60;;;1.50;;
6665;SDS011;3369;49.906;8.598;2023-06-01T14:07:17;2.47;;;1.70;;
6665;SDS011;3369;49.906;8.598;2023-06-01T14:09:43;2.85;;;1.67;;
6665;SDS011;3369;49.906;8.598;2023-06-01T14:12:09;1.60;;;1.50;;
6665;SDS011;3369;49.906;8.598;2023-06-01T14:14:36;2.88;;;1.70;;
6665;SDS011;3369;49.906;8.598;2023-06-01T14:17:02;3.35;;;1.60;;
6665;SDS011;3369;49.906;8.598;2023-06-01T14:19:28;1.67;;;1.40;;
6665;SDS011;3369;49.906;8.598;2023-06-01T14:21:54;3.25;;;1.85;;
6665;SDS011;3369;49.906;8.598;2023-06-01T14:24:20;2.13;;;1.70;;
6665;SDS011;3369;49.906;8.598;2023-06-01T14:26:46;3.25;;;1.80;;
6665;SDS011;3369;49.906;8.598;2023-06-01T14:29:11;3.67;;;1.70;;
6665;SDS011;3369;49.906;8.598;2023-06-01T14:31:37;1.85;;;1.70;;
6665;SDS011;3369;49.906;8.598;2023-06-01T14:34:03;1.58;;;1.42;;
6665;SDS011;3369;49.906;8.598;2023-06-01T14:36:28;2.40;;;1.50;;
6665;SDS011;3369;49.906;8.598;2023-06-01T14:38:55;2.90;;;1.63;;
6665;SDS011;3369;49.906;8.598;2023-06-01T14:41:20;3.45;;;1.85;;
6665;SDS011;3369;49.906;8.598;2023-06-01T14:43:46;1.75;;;1.60;;
6665;SDS011;3369;49.906;8.598;2023-06-01T14:46:11;3.25;;;1.60;;
6665;SDS011;3369;49.906;8.598;2023-06-01T14:48:37;2.60;;;1.88;;
6665;SDS011;3369;49.906;8.598;2023-06-01T14:51:03;1.95;;;1.63;;
6665;SDS011;3369;49.906;8.598;2023-06-01T14:53:29;1.85;;;1.67;;
6665;SDS011;3369;49.906;8.598;2023-06-01T14:55:55;2.17;;;1.85;;
6665;SDS011;3369;49.906;8.598;2023-06-01T14:58:20;1.73;;;1.63;;
6665;SDS011;3369;49.906;8.598;2023-06-01T15:00:46;1.75;;;1.65;;
6665;SDS011;3369;49.906;8.598;2023-06-01T15:03:12;2.35;;;1.63;;
6665;SDS011;3369;49.906;8.598;2023-06-01T15:05:38;2.67;;;1.70;;
6665;SDS011;3369;49.906;8.598;2023-06-01T15:08:07;2.30;;;1.73;;
6665;SDS011;3369;49.906;8.598;2023-06-01T15:10:33;2.20;;;1.27;;
6665;SDS011;3369;49.906;8.598;2023-06-01T15:12:58;1.52;;;1.42;;
6665;SDS011;3369;49.906;8.598;2023-06-01T15:15:24;3.17;;;1.50;;
6665;SDS011;3369;49.906;8.598;2023-06-01T15:17:50;1.45;;;1.35;;
6665;SDS011;3369;49.906;8.598;2023-06-01T15:20:15;1.70;;;1.60;;
6665;SDS011;3369;49.906;8.598;2023-06-01T15:22:41;1.40;;;1.30;;
6665;SDS011;3369;49.906;8.598;2023-06-01T15:25:07;1.70;;;1.50;;
6665;SDS011;3369;49.906;8.598;2023-06-01T15:27:32;2.67;;;2.05;;
6665;SDS011;3369;49.906;8.598;2023-06-01T15:29:58;1.92;;;1.60;;
6665;SDS011;3369;49.906;8.598;2023-06-01T15:32:24;1.95;;;1.70;;
6665;SDS011;3369;49.906;8.598;2023-06-01T15:34:50;2.35;;;1.40;;
6665;SDS011;3369;49.906;8.598;2023-06-01T15:37:15;1.60;;;1.50;;
6665;SDS011;3369;49.906;8.598;2023-06-01T15:39:41;2.65;;;1.63;;
6665;SDS011;3369;49.906;8.598;2023-06-01T15:42:07;2.28;;;1.60;;
6665;SDS011;3369;49.906;8.598;2023-06-01T15:44:43;2.42;;;1.77;;
6665;SDS011;3369;49.906;8.598;2023-06-01T15:47:10;1.70;;;1.48;;
6665;SDS011;3369;49.906;8.598;2023-06-01T15:49:38;1.58;;;1.48;;
6665;SDS011;3369;49.906;8.598;2023-06-01T15:52:04;2.08;;;1.60;;
6665;SDS011;3369;49.906;8.598;2023-06-01T15:54:34;1.67;;;1.58;;
6665;SDS011;3369;49.906;8.598;2023-06-01T15:57:00;1.50;;;1.40;;
6665;SDS011;3369;49.906;8.598;2023-06-01T15:59:28;2.05;;;1.48;;
6665;SDS011;3369;49.906;8.598;2023-06-01T16:01:55;2.67;;;1.73;;
6665;SDS011;3369;49.906;8.598;2023-06-01T16:04:20;3.78;;;1.73;;
6665;SDS011;3369;49.906;8.598;2023-06-01T16:06:46;1.80;;;1.50;;
6665;SDS011;3369;49.906;8.598;2023-06-01T16:09:12;1.48;;;1.38;;
6665;SDS011;3369;49.906;8.598;2023-06-01T16:11:37;2.28;;;2.08;;
6665;SDS011;3369;49.906;8.598;2023-06-01T16:14:03;1.98;;;1.80;;
6665;SDS011;3369;49.906;8.598;2023-06-01T16:16:28;3.70;;;1.67;;
6665;SDS011;3369;49.906;8.598;2023-06-01T16:18:54;2.15;;;1.80;;
6665;SDS011;3369;49.906;8.598;2023-06-01T16:21:20;5.05;;;2.58;;
6665;SDS011;3369;49.906;8.598;2023-06-01T16:23:45;3.03;;;2.33;;
6665;SDS011;3369;49.906;8.598;2023-06-01T16:26:11;3.58;;;2.70;;
6665;SDS011;3369;49.906;8.598;2023-06-01T16:28:37;5.38;;;3.03;;
6665;SDS011;3369;49.906;8.598;2023-06-01T16:31:02;3.67;;;2.95;;
6665;SDS011;3369;49.906;8.598;2023-06-01T16:33:28;4.90;;;3.40;;
6665;SDS011;3369;49.906;8.598;2023-06-01T16:35:54;5.70;;;3.53;;
6665;SDS011;3369;49.906;8.598;2023-06-01T16:38:20;3.22;;;2.83;;
6665;SDS011;3369;49.906;8.598;2023-06-01T16:40:45;5.78;;;3.65;;
6665;SDS011;3369;49.906;8.598;2023-06-01T16:43:11;4.43;;;3.50;;
6665;SDS011;3369;49.906;8.598;2023-06-01T16:45:43;4.20;;;3.38;;
6665;SDS011;3369;49.906;8.598;2023-06-01T16:48:11;4.25;;;3.85;;
6665;SDS011;3369;49.906;8.598;2023-06-01T16:50:37;5.65;;;4.43;;
6665;SDS011;3369;49.906;8.598;2023-06-01T16:53:08;5.75;;;4.55;;
6665;SDS011;3369;49.906;8.598;2023-06-01T16:55:36;4.47;;;4.07;;
6665;SDS011;3369;49.906;8.598;2023-06-01T16:58:02;4.60;;;4.20;;
6665;SDS011;3369;49.906;8.598;2023-06-01T17:00:28;5.53;;;4.93;;
6665;SDS011;3369;49.906;8.598;2023-06-01T17:02:54;8.57;;;5.00;;